Time;durP1;ratioP1;P1;durP2;ratioP2;P2;SDS_P1;SDS_P2;PMS_P1;PMS_P2;Temp;Humidity;BMP_temperature;BMP_pressure;BME280_temperature;BME280_humidity;BME280_pressure;Samples;Min_cycle;Max_cycle;Signal;HPM_P1;HPM_P2
2021/09/30 00:00:26;;;;;;;3.33;1.83;;;;;;;9.21;100.00;101293.97;5014546;28;20046;-66
2021/09/30 00:02:53;;;;;;;3.15;1.40;;;;;;;9.33;100.00;101295.22;5027867;28;20499;-65
2021/09/30 00:05:21;;;;;;;4.88;1.20;;;;;;;9.37;100.00;101299.44;5019827;28;20144;-64
2021/09/30 00:07:48;;;;;;;3.17;1.10;;;;;;;9.37;100.00;101297.66;5023187;28;20050;-66
2021/09/30 00:10:19;;;;;;;2.63;1.30;;;;;;;9.25;100.00;101305.22;5023656;28;20049;-67
2021/09/30 00:12:52;;;;;;;5.78;1.60;;;;;;;9.33;100.00;101303.13;5029445;28;20445;-66
2021/09/30 00:15:32;;;;;;;4.60;1.23;;;;;;;9.36;100.00;101310.84;5020967;28;20076;-67
2021/09/30 00:34:47;;;;;;;2.55;1.25;;;;;;;9.25;100.00;101320.97;5022761;28;20057;-66
2021/09/30 00:40:24;;;;;;;1.38;1.00;;;;;;;9.20;100.00;101333.44;5026642;28;20073;-66
2021/09/30 00:46:04;;;;;;;2.20;1.02;;;;;;;9.00;100.00;101334.25;5028219;28;20053;-66
2021/09/30 00:51:15;;;;;;;4.70;1.10;;;;;;;9.13;100.00;101335.47;5034163;28;20057;-65
2021/09/30 00:53:55;;;;;;;2.97;1.55;;;;;;;8.98;100.00;101328.22;5033442;28;20045;-67
2021/09/30 01:23:04;;;;;;;2.92;1.58;;;;;;;8.94;100.00;101355.53;5041472;28;20080;-65
2021/09/30 01:26:45;;;;;;;6.40;2.00;;;;;;;8.86;100.00;101359.31;5023799;28;20058;-64
2021/09/30 01:32:18;;;;;;;5.50;1.55;;;;;;;8.95;100.00;101352.81;4950435;28;20368;-66
2021/09/30 02:18:12;;;;;;;4.07;1.05;;;;;;;8.74;100.00;101372.94;5025082;28;20062;-65
2021/09/30 02:40:21;;;;;;;4.65;1.58;;;;;;;8.60;100.00;101377.84;5024499;28;20587;-65
2021/09/30 02:59:42;;;;;;;4.38;1.92;;;;;;;8.52;100.00;101390.44;5016512;28;20052;-63
2021/09/30 03:02:10;;;;;;;6.05;1.58;;;;;;;8.51;100.00;101392.22;5024701;28;20707;-65
2021/09/30 03:04:37;;;;;;;8.60;1.85;;;;;;;8.65;100.00;101390.81;5014824;28;20072;-64
2021/09/30 03:07:06;;;;;;;6.97;1.85;;;;;;;8.58;100.00;101385.78;5004920;28;20200;-65
2021/09/30 03:09:39;;;;;;;6.38;1.42;;;;;;;8.65;100.00;101396.06;5021671;28;21605;-63
2021/09/30 03:12:08;;;;;;;11.38;2.30;;;;;;;8.45;100.00;101392.41;5004192;28;20076;-62
2021/09/30 03:14:42;;;;;;;6.43;1.40;;;;;;;8.52;100.00;101396.53;5024577;28;20137;-66
2021/09/30 03:17:09;;;;;;;2.05;1.75;;;;;;;8.78;100.00;101392.91;5041009;28;20057;-66
2021/09/30 03:19:58;;;;;;;6.93;1.65;;;;;;;8.62;100.00;101395.25;5019963;28;20080;-65
2021/09/30 03:22:28;;;;;;;7.75;1.80;;;;;;;8.79;100.00;101404.25;5037151;28;20070;-65
2021/09/30 03:24:56;;;;;;;4.22;1.40;;;;;;;8.75;100.00;101398.28;5018564;28;20058;-66
2021/09/30 03:27:25;;;;;;;4.15;1.77;;;;;;;8.73;100.00;101400.09;5023621;28;20456;-66
2021/09/30 03:29:52;;;;;;;4.47;1.95;;;;;;;8.67;100.00;101400.34;5035062;28;20371;-64
2021/09/30 03:32:20;;;;;;;5.18;1.45;;;;;;;8.67;100.00;101400.34;5021401;28;20062;-65
2021/09/30 03:34:47;;;;;;;7.53;1.33;;;;;;;8.66;100.00;101409.13;5031105;28;20144;-66
2021/09/30 03:37:14;;;;;;;7.30;2.33;;;;;;;8.61;100.00;101409.31;5036667;28;20046;-65
2021/09/30 03:39:43;;;;;;;2.17;1.10;;;;;;;8.62;100.00;101404.91;5036634;28;20291;-65
2021/09/30 03:42:10;;;;;;;4.30;2.08;;;;;;;8.60;100.00;101412.84;5033755;28;20076;-66
2021/09/30 03:44:37;;;;;;;6.10;1.38;;;;;;;8.65;100.00;101411.81;5041930;28;20045;-65
2021/09/30 03:47:05;;;;;;;4.15;1.48;;;;;;;8.66;100.00;101413.53;5027631;28;20049;-66
2021/09/30 03:49:34;;;;;;;5.75;1.55;;;;;;;8.58;100.00;101416.44;5024298;28;20439;-65
2021/09/30 03:52:27;;;;;;;5.32;1.73;;;;;;;8.51;100.00;101415.81;5026996;28;20045;-66
2021/09/30 03:59:49;;;;;;;6.50;2.20;;;;;;;8.56;100.00;101420.91;5042053;28;20061;-65
2021/09/30 04:02:16;;;;;;;6.78;2.00;;;;;;;8.44;100.00;101419.56;5027928;28;20474;-65
2021/09/30 04:04:46;;;;;;;9.43;1.70;;;;;;;8.63;100.00;101419.72;5026607;28;20085;-64
2021/09/30 04:07:14;;;;;;;3.72;1.58;;;;;;;8.67;100.00;101428.34;5025887;28;20186;-65
2021/09/30 04:09:41;;;;;;;5.53;1.77;;;;;;;8.61;100.00;101425.06;5021125;28;20099;-64
2021/09/30 04:12:10;;;;;;;7.70;1.92;;;;;;;8.72;100.00;101434.28;5024511;28;20091;-65
2021/09/30 04:14:38;;;;;;;4.28;1.35;;;;;;;8.69;100.00;101430.03;4993966;28;20045;-64
2021/09/30 04:17:06;;;;;;;4.53;1.42;;;;;;;8.59;100.00;101431.25;5027318;28;20050;-65
2021/09/30 04:19:33;;;;;;;5.80;1.45;;;;;;;8.69;100.00;101437.00;5039786;28;20107;-64
2021/09/30 04:22:00;;;;;;;5.15;1.73;;;;;;;8.60;100.00;101443.47;5027238;28;20152;-64
2021/09/30 04:24:28;;;;;;;8.05;1.88;;;;;;;8.54;100.00;101441.06;5009497;28;20059;-65
2021/09/30 04:26:55;;;;;;;5.70;1.60;;;;;;;8.39;100.00;101442.50;5026837;28;20097;-65
2021/09/30 04:29:23;;;;;;;3.75;1.50;;;;;;;8.51;100.00;101449.06;5020257;28;20152;-65
2021/09/30 04:31:51;;;;;;;6.13;1.65;;;;;;;8.49;100.00;101448.28;5028821;28;20125;-64
2021/09/30 04:34:18;;;;;;;9.27;1.48;;;;;;;8.60;100.00;101448.72;5012661;28;20869;-65
2021/09/30 04:36:46;;;;;;;5.88;1.60;;;;;;;8.55;100.00;101454.13;5048468;22;20052;-64
2021/09/30 04:39:15;;;;;;;4.43;1.40;;;;;;;8.60;100.00;101449.59;5063511;28;20052;-66
2021/09/30 04:41:44;;;;;;;11.90;1.58;;;;;;;8.51;100.00;101451.69;5058056;28;20555;-66
2021/09/30 04:44:12;;;;;;;6.60;1.50;;;;;;;8.50;100.00;101453.44;5037126;28;20383;-65
2021/09/30 04:46:40;;;;;;;5.57;1.35;;;;;;;8.46;100.00;101459.72;5049755;28;20128;-67
2021/09/30 04:49:07;;;;;;;9.18;1.60;;;;;;;8.52;100.00;101464.75;5064043;28;20171;-66
2021/09/30 04:51:34;;;;;;;3.50;1.85;;;;;;;8.55;100.00;101463.78;5054438;28;20062;-66
2021/09/30 04:54:02;;;;;;;5.57;1.67;;;;;;;8.58;100.00;101467.16;5031459;28;20697;-67
2021/09/30 04:56:29;;;;;;;8.77;1.50;;;;;;;8.31;100.00;101473.38;5060901;28;20070;-64
2021/09/30 04:58:58;;;;;;;7.07;1.77;;;;;;;8.50;100.00;101466.56;5063706;28;20143;-65
2021/09/30 05:01:25;;;;;;;7.03;2.00;;;;;;;8.71;100.00;101477.19;5042283;28;20088;-65
2021/09/30 05:03:53;;;;;;;6.43;1.65;;;;;;;8.70;100.00;101480.75;5058482;28;20063;-65
2021/09/30 05:06:20;;;;;;;2.80;1.38;;;;;;;8.70;100.00;101484.22;5042820;28;20045;-64
2021/09/30 05:08:50;;;;;;;4.50;1.80;;;;;;;8.48;100.00;101481.53;5045530;28;20049;-65
2021/09/30 05:11:18;;;;;;;7.15;1.70;;;;;;;8.51;100.00;101484.06;5047510;28;20053;-64
2021/09/30 05:13:45;;;;;;;3.78;1.50;;;;;;;8.62;100.00;101486.28;5063631;28;20086;-67
2021/09/30 05:16:14;;;;;;;7.72;1.85;;;;;;;8.82;100.00;101491.63;5062957;28;20135;-65
2021/09/30 05:18:47;;;;;;;4.75;1.35;;;;;;;8.93;100.00;101490.38;5062543;28;20055;-66
2021/09/30 05:21:15;;;;;;;5.13;1.52;;;;;;;9.08;99.32;101497.66;5060170;28;20063;-65
2021/09/30 05:23:42;;;;;;;3.97;1.40;;;;;;;9.22;98.85;101489.22;5054275;28;20399;-65
2021/09/30 05:26:09;;;;;;;5.00;1.40;;;;;;;9.32;98.46;101490.56;5012630;28;20062;-64
2021/09/30 05:28:37;;;;;;;6.35;1.70;;;;;;;9.58;96.88;101490.38;5025022;28;20070;-66
2021/09/30 05:31:05;;;;;;;5.85;1.40;;;;;;;9.95;94.51;101498.50;5033453;28;20091;-65
2021/09/30 05:33:32;;;;;;;7.47;1.52;;;;;;;10.17;93.18;101494.03;5064653;28;20062;-65
2021/09/30 05:35:59;;;;;;;6.20;2.30;;;;;;;10.36;91.82;101500.25;5047224;28;20052;-65
2021/09/30 05:38:26;;;;;;;5.35;1.92;;;;;;;10.61;90.53;101500.00;5069561;28;20471;-65
2021/09/30 05:40:54;;;;;;;7.72;1.40;;;;;;;10.80;89.16;101496.53;5040893;28;20056;-65
2021/09/30 05:43:29;;;;;;;4.63;1.58;;;;;;;10.83;86.96;101505.16;5058986;28;20055;-66
2021/09/30 05:45:57;;;;;;;6.37;1.80;;;;;;;11.03;86.33;101503.38;5040036;28;20076;-67
2021/09/30 05:48:25;;;;;;;4.05;2.03;;;;;;;11.26;84.08;101503.16;5065382;28;20053;-66
2021/09/30 05:50:53;;;;;;;6.03;1.67;;;;;;;11.37;84.57;101511.41;5048106;28;20771;-63
2021/09/30 05:53:21;;;;;;;5.55;1.48;;;;;;;11.16;84.87;101513.25;5045765;28;20139;-66
2021/09/30 05:55:48;;;;;;;4.53;1.35;;;;;;;11.37;83.36;101515.81;5057158;28;20056;-65
2021/09/30 05:58:16;;;;;;;3.08;1.20;;;;;;;11.18;84.06;101517.63;5044056;28;20047;-65
2021/09/30 06:01:01;;;;;;;7.97;1.67;;;;;;;11.20;84.53;101529.78;5051959;28;20139;-65
2021/09/30 06:11:47;;;;;;;6.82;1.30;;;;;;;11.43;83.40;101533.97;5058590;28;20131;-65
2021/09/30 06:14:27;;;;;;;4.05;1.15;;;;;;;10.95;85.99;101534.50;5037277;28;20045;-65
2021/09/30 06:16:55;;;;;;;7.03;1.20;;;;;;;10.78;87.27;101533.50;5056587;28;20147;-66
2021/09/30 06:19:30;;;;;;;4.75;1.17;;;;;;;11.14;85.01;101540.63;5034895;28;20073;-65
2021/09/30 06:21:58;;;;;;;6.68;1.40;;;;;;;11.26;83.59;101544.47;5042449;28;20087;-65
2021/09/30 06:24:25;;;;;;;4.60;1.30;;;;;;;10.87;86.65;101540.97;5052863;28;20059;-65
2021/09/30 06:26:52;;;;;;;3.58;1.27;;;;;;;10.94;83.98;101554.69;5041923;28;20180;-66
2021/09/30 06:29:21;;;;;;;12.77;1.75;;;;;;;10.78;85.55;101553.72;5064758;28;20060;-66
2021/09/30 06:31:48;;;;;;;6.03;1.25;;;;;;;10.49;88.91;101544.44;5064771;28;21115;-65
2021/09/30 06:34:15;;;;;;;7.72;1.42;;;;;;;10.65;87.40;101548.97;5039738;28;20047;-65
2021/09/30 06:36:42;;;;;;;5.07;1.10;;;;;;;10.74;86.80;101554.75;5039915;28;20483;-64
2021/09/30 06:39:10;;;;;;;5.60;1.30;;;;;;;10.78;87.52;101561.59;5059733;28;20054;-65
2021/09/30 06:41:37;;;;;;;5.93;1.40;;;;;;;10.85;86.46;101550.75;5060580;28;20155;-67
2021/09/30 06:44:17;;;;;;;5.82;2.20;;;;;;;10.80;87.69;101555.34;5057977;28;20131;-66
2021/09/30 06:46:45;;;;;;;9.05;1.35;;;;;;;10.82;87.59;101556.13;5062709;28;20055;-65
2021/09/30 06:49:12;;;;;;;5.35;1.83;;;;;;;10.87;88.13;101561.19;5059680;28;20385;-64
2021/09/30 06:51:39;;;;;;;12.77;1.75;;;;;;;10.99;86.07;101562.44;5059452;28;20539;-65
2021/09/30 06:54:06;;;;;;;8.50;2.50;;;;;;;11.02;85.20;101563.13;5059483;28;20106;-66
2021/09/30 06:56:33;;;;;;;4.57;1.40;;;;;;;11.07;84.73;101563.75;5027685;28;20068;-66
2021/09/30 06:59:07;;;;;;;6.03;1.48;;;;;;;11.21;84.02;101567.53;5058747;28;20049;-66
2021/09/30 07:01:35;;;;;;;4.88;1.50;;;;;;;11.18;84.26;101573.81;5062641;28;20087;-66
2021/09/30 07:04:04;;;;;;;5.40;1.30;;;;;;;11.22;83.37;101569.28;5039559;28;20474;-67
2021/09/30 07:06:32;;;;;;;6.63;1.95;;;;;;;11.37;83.52;101576.44;5060177;28;20548;-65
2021/09/30 07:08:59;;;;;;;8.48;1.77;;;;;;;11.52;82.69;101580.13;5062238;28;20152;-66
2021/09/30 07:11:26;;;;;;;6.57;1.40;;;;;;;11.38;82.02;101591.34;5069076;28;20060;-65
2021/09/30 07:13:54;;;;;;;6.00;1.30;;;;;;;11.49;82.73;101583.78;5060143;28;20053;-64
2021/09/30 07:16:21;;;;;;;6.28;1.45;;;;;;;11.47;83.44;101596.19;5067118;28;20080;-64
2021/09/30 07:18:48;;;;;;;9.65;1.52;;;;;;;11.64;81.08;101590.09;5064200;28;20095;-64
2021/09/30 07:21:16;;;;;;;4.50;1.20;;;;;;;11.75;80.23;101602.78;5050399;28;20068;-66
2021/09/30 07:26:36;;;;;;;9.13;1.83;;;;;;;11.66;82.72;101604.94;5068650;28;20102;-65
2021/09/30 07:29:03;;;;;;;8.32;2.20;;;;;;;11.58;82.11;101600.97;5041502;28;20057;-66
2021/09/30 07:31:30;;;;;;;9.38;1.30;;;;;;;11.67;80.82;101600.53;5056308;28;20063;-66
2021/09/30 07:33:58;;;;;;;9.35;2.03;;;;;;;11.55;82.40;101601.94;5050964;28;20125;-66
2021/09/30 07:36:25;;;;;;;4.60;1.23;;;;;;;11.36;82.34;101609.88;5043871;28;20048;-66
2021/09/30 07:38:52;;;;;;;10.23;1.67;;;;;;;11.48;82.17;101610.22;5062003;28;20129;-66
2021/09/30 07:41:20;;;;;;;7.78;1.80;;;;;;;11.63;82.17;101607.72;5066128;28;20052;-65
2021/09/30 07:43:47;;;;;;;7.00;1.48;;;;;;;11.54;81.65;101613.44;5044139;28;20106;-64
2021/09/30 07:46:15;;;;;;;17.00;1.80;;;;;;;11.58;82.36;101607.09;5046764;28;20049;-65
2021/09/30 07:48:42;;;;;;;2.70;1.40;;;;;;;11.37;83.93;101618.63;5058287;28;20078;-66
2021/09/30 07:51:10;;;;;;;7.82;1.58;;;;;;;11.55;82.21;101620.41;5070253;28;20110;-65
2021/09/30 07:53:37;;;;;;;6.93;1.63;;;;;;;11.70;81.63;101608.28;5033958;28;20056;-65
2021/09/30 07:56:05;;;;;;;6.50;1.83;;;;;;;11.68;82.95;101617.19;5071835;28;20108;-65
2021/09/30 07:58:32;;;;;;;4.93;1.40;;;;;;;11.95;80.65;101623.81;5057453;28;20041;-66
2021/09/30 08:01:00;;;;;;;9.00;1.30;;;;;;;11.89;79.78;101619.69;5068280;28;20078;-66
2021/09/30 08:03:29;;;;;;;7.03;1.35;;;;;;;11.91;80.55;101624.88;5066117;28;20559;-65
2021/09/30 08:05:57;;;;;;;3.15;1.23;;;;;;;12.23;78.17;101633.00;5064064;28;20086;-66
2021/09/30 08:08:24;;;;;;;5.63;1.90;;;;;;;12.48;76.53;101633.50;5069402;28;20110;-66
2021/09/30 08:10:51;;;;;;;6.35;1.38;;;;;;;12.48;76.66;101635.28;5069117;28;20048;-67
2021/09/30 08:13:19;;;;;;;5.57;1.70;;;;;;;12.41;77.32;101645.28;5061225;28;20048;-66
2021/09/30 08:15:46;;;;;;;6.25;1.27;;;;;;;12.70;75.34;101635.00;5058957;28;20071;-67
2021/09/30 08:18:13;;;;;;;6.18;1.00;;;;;;;12.84;75.36;101630.75;5030837;28;20044;-65
2021/09/30 08:20:42;;;;;;;7.18;1.23;;;;;;;12.72;75.98;101635.81;5065822;28;20497;-65
2021/09/30 08:23:13;;;;;;;7.50;2.35;;;;;;;13.27;74.00;101643.50;5071250;28;20076;-65
2021/09/30 08:25:42;;;;;;;7.20;1.45;;;;;;;13.77;72.39;101637.22;5062205;28;20095;-64
2021/09/30 08:28:10;;;;;;;4.97;1.52;;;;;;;13.44;72.54;101648.72;5074316;28;20052;-64
2021/09/30 08:30:40;;;;;;;10.95;1.50;;;;;;;14.25;70.50;101649.44;5051547;28;20510;-65
2021/09/30 08:33:11;;;;;;;5.35;1.23;;;;;;;14.51;67.97;101658.56;5062848;28;20071;-64
2021/09/30 08:35:42;;;;;;;8.75;1.88;;;;;;;14.63;67.43;101649.91;5063321;28;20135;-66
2021/09/30 08:38:12;;;;;;;8.10;1.40;;;;;;;15.24;64.75;101655.06;5037460;28;20099;-66
2021/09/30 08:40:49;;;;;;;9.30;1.63;;;;;;;15.49;62.96;101662.31;5050599;28;20049;-66
2021/09/30 08:43:19;;;;;;;4.35;1.20;;;;;;;15.37;63.84;101666.59;5032398;28;20033;-67
2021/09/30 08:45:47;;;;;;;7.63;1.15;;;;;;;15.87;62.08;101671.38;5037845;28;20572;-65
2021/09/30 08:48:18;;;;;;;5.07;1.27;;;;;;;15.60;61.96;101671.31;5059405;28;20049;-66
2021/09/30 08:50:47;;;;;;;6.35;1.50;;;;;;;15.03;65.02;101666.03;5038232;28;20054;-67
2021/09/30 08:53:17;;;;;;;7.95;1.33;;;;;;;15.25;63.54;101668.22;5062216;28;20081;-67
2021/09/30 08:55:47;;;;;;;5.82;1.02;;;;;;;14.66;65.51;101676.19;5046468;28;20505;-64
2021/09/30 08:58:28;;;;;;;7.85;1.20;;;;;;;14.79;65.91;101671.00;5036634;28;20068;-63
2021/09/30 09:00:58;;;;;;;7.63;1.30;;;;;;;15.38;63.58;101670.97;5015586;28;20242;-65
2021/09/30 09:03:40;;;;;;;3.38;1.17;;;;;;;14.98;64.10;101678.72;5050157;28;20048;-67
2021/09/30 09:06:31;;;;;;;6.18;1.17;;;;;;;15.00;63.49;101681.28;5047883;28;20119;-66
2021/09/30 09:09:24;;;;;;;3.67;0.93;;;;;;;15.17;63.70;101673.13;5034980;28;20102;-65
2021/09/30 09:11:53;;;;;;;9.93;1.55;;;;;;;15.37;63.49;101678.06;5061335;28;20048;-64
2021/09/30 09:14:22;;;;;;;4.55;1.60;;;;;;;15.26;63.00;101667.25;5035899;28;20052;-64
2021/09/30 09:17:11;;;;;;;3.53;1.10;;;;;;;15.17;64.07;101675.78;5054479;28;20049;-64
2021/09/30 09:19:41;;;;;;;6.13;1.50;;;;;;;15.35;62.49;101673.78;5061795;28;20048;-65
2021/09/30 09:22:14;;;;;;;8.50;1.70;;;;;;;15.49;62.32;101681.78;5064545;28;20114;-67
2021/09/30 09:24:56;;;;;;;6.28;2.10;;;;;;;15.31;63.14;101682.88;5051447;28;20055;-65
2021/09/30 09:27:26;;;;;;;7.85;1.50;;;;;;;14.88;64.68;101686.38;5070019;28;20460;-64
2021/09/30 09:29:53;;;;;;;3.35;0.98;;;;;;;14.80;64.62;101685.13;5048247;28;20106;-64
2021/09/30 09:32:20;;;;;;;7.32;1.45;;;;;;;14.74;64.96;101686.34;5062801;28;20145;-65
2021/09/30 09:35:13;;;;;;;5.57;1.23;;;;;;;14.62;65.99;101692.38;5068518;28;20526;-66
2021/09/30 09:37:40;;;;;;;6.50;1.30;;;;;;;14.65;65.41;101698.34;5048834;28;20159;-65
2021/09/30 09:40:17;;;;;;;7.82;1.30;;;;;;;14.04;67.73;101687.75;5064462;28;20062;-64
2021/09/30 09:42:45;;;;;;;7.05;1.00;;;;;;;14.16;67.64;101700.28;5051438;28;20044;-65
2021/09/30 09:45:13;;;;;;;4.57;1.50;;;;;;;13.86;68.13;101692.28;5042900;28;20053;-65
2021/09/30 09:48:05;;;;;;;;;;;;;;;;;;;;;
2021/09/30 09:51:00;;;;;;;4.78;1.88;;;;;;;13.51;69.41;101705.66;5050577;28;20040;-70
2021/09/30 09:53:41;;;;;;;3.78;1.30;;;;;;;13.52;69.83;101703.88;5029848;28;20053;-71
2021/09/30 09:56:19;;;;;;;4.70;1.40;;;;;;;13.28;70.32;101708.66;5059861;28;20060;-67
2021/09/30 09:58:52;;;;;;;5.85;1.60;;;;;;;13.51;70.65;101705.66;5046953;28;20125;-66
2021/09/30 10:01:22;;;;;;;5.40;1.17;;;;;;;13.78;70.14;101713.91;5060049;28;20115;-68
2021/09/30 10:03:58;;;;;;;6.85;1.30;;;;;;;13.90;69.32;101704.41;5040948;28;20045;-70
2021/09/30 10:06:32;;;;;;;;;;;;;;;14.14;68.32;101707.50;5050756;28;20063;-66
2021/09/30 10:09:17;;;;;;;8.30;1.30;;;;;;;14.57;67.27;101712.97;5060314;28;20080;-67
2021/09/30 10:11:44;;;;;;;4.35;1.20;;;;;;;14.59;66.91;101711.97;5051644;28;20048;-66
2021/09/30 10:14:12;;;;;;;4.78;1.35;;;;;;;14.77;65.05;101703.84;5060798;28;20044;-68
2021/09/30 10:16:42;;;;;;;3.47;0.95;;;;;;;14.38;66.90;101708.72;5048587;28;20044;-66
2021/09/30 10:19:09;;;;;;;6.75;1.67;;;;;;;14.67;65.02;101716.78;5065377;28;20110;-65
2021/09/30 10:21:37;;;;;;;7.50;1.55;;;;;;;14.83;65.30;101720.25;5063076;28;20431;-66
2021/09/30 10:24:27;;;;;;;8.18;1.60;;;;;;;15.14;64.18;101713.13;5053289;28;20055;-66
2021/09/30 10:26:58;;;;;;;5.43;1.20;;;;;;;15.48;61.82;101711.03;5064700;28;20139;-67
2021/09/30 10:29:46;;;;;;;8.48;1.90;;;;;;;15.84;61.36;101719.38;5042570;28;20067;-67
2021/09/30 10:32:17;;;;;;;6.00;1.10;;;;;;;15.64;60.90;101712.69;5066965;28;20659;-67
2021/09/30 10:34:47;;;;;;;6.43;1.95;;;;;;;16.06;60.39;101716.19;5027701;28;20049;-67
2021/09/30 10:37:31;;;;;;;3.72;1.35;;;;;;;15.61;60.68;101720.78;5061415;22;20041;-63
2021/09/30 10:40:18;;;;;;;9.13;1.80;;;;;;;16.08;59.36;101722.28;5065387;28;20172;-64
2021/09/30 10:42:53;;;;;;;4.28;1.00;;;;;;;15.37;60.58;101719.66;5088396;28;20051;-63
2021/09/30 10:45:23;;;;;;;5.63;1.35;;;;;;;16.12;59.42;101722.91;5076730;28;20379;-64
2021/09/30 10:47:50;;;;;;;9.00;1.35;;;;;;;16.03;58.97;101723.50;5082117;28;20078;-65
2021/09/30 10:50:18;;;;;;;4.65;0.98;;;;;;;16.47;58.32;101715.28;5077942;28;20134;-65
2021/09/30 10:52:53;;;;;;;6.60;1.30;;;;;;;16.90;56.98;101721.28;5082304;28;20063;-64
2021/09/30 10:55:23;;;;;;;2.67;0.93;;;;;;;16.84;56.59;101721.69;5062393;28;20090;-65
2021/09/30 10:57:55;;;;;;;5.50;1.30;;;;;;;16.80;56.35;101716.69;5082112;28;20067;-63
2021/09/30 11:00:22;;;;;;;5.68;1.30;;;;;;;17.07;56.24;101720.13;5081701;28;20080;-64
2021/09/30 11:02:59;;;;;;;4.60;1.27;;;;;;;17.07;55.34;101706.81;5066283;28;20103;-63
2021/09/30 11:05:35;;;;;;;7.35;1.15;;;;;;;17.00;55.28;101720.63;5081917;28;20043;-64
2021/09/30 11:08:20;;;;;;;9.25;1.13;;;;;;;17.43;53.80;101714.03;5081286;28;20151;-64
2021/09/30 11:11:08;;;;;;;17.92;1.75;;;;;;;17.93;52.68;101708.75;5080477;28;20047;-64
2021/09/30 11:13:44;;;;;;;9.45;2.25;;;;;;;18.16;52.66;101705.25;5081772;28;20072;-66
2021/09/30 11:16:17;;;;;;;7.97;1.65;;;;;;;18.07;51.97;101710.41;5079167;28;20398;-62
2021/09/30 11:18:57;;;;;;;5.65;1.48;;;;;;;17.67;53.02;101707.94;5068515;28;20040;-63
2021/09/30 11:21:30;;;;;;;8.13;1.33;;;;;;;17.27;53.93;101710.75;5102626;28;20509;-64
2021/09/30 11:24:09;;;;;;;3.50;1.00;;;;;;;17.50;53.01;101701.13;5086591;28;20108;-65
2021/09/30 11:26:49;;;;;;;5.13;0.90;;;;;;;17.51;52.78;101713.47;5065686;28;20127;-64
2021/09/30 11:29:19;;;;;;;8.07;1.05;;;;;;;16.96;54.18;101714.66;5082191;28;20137;-64
2021/09/30 11:31:58;;;;;;;7.47;1.67;;;;;;;16.63;54.57;101712.47;5080539;28;20050;-65
2021/09/30 11:34:27;;;;;;;5.68;1.42;;;;;;;16.17;56.32;101712.84;5076843;28;20067;-64
2021/09/30 11:36:57;;;;;;;3.92;1.15;;;;;;;16.35;56.79;101718.78;5069829;28;20076;-64
2021/09/30 11:39:34;;;;;;;7.97;2.33;;;;;;;16.01;57.46;101715.63;5080992;28;20139;-64
2021/09/30 11:42:02;;;;;;;7.03;1.40;;;;;;;15.71;57.50;101718.44;5089426;28;20052;-63
2021/09/30 11:44:29;;;;;;;6.88;1.48;;;;;;;15.88;57.76;101718.22;5087828;28;20059;-65
2021/09/30 11:46:58;;;;;;;6.40;1.08;;;;;;;16.25;57.06;101717.66;5088138;28;20135;-65
2021/09/30 11:49:26;;;;;;;5.65;1.20;;;;;;;16.23;57.02;101719.56;5061229;28;20052;-64
2021/09/30 11:51:56;;;;;;;5.80;1.63;;;;;;;16.14;57.31;101724.53;5084080;28;20095;-63
2021/09/30 11:54:32;;;;;;;4.80;1.30;;;;;;;16.00;57.46;101723.72;5080379;28;20144;-62
2021/09/30 11:57:00;;;;;;;2.80;1.20;;;;;;;16.04;58.21;101728.72;5083971;28;20131;-64
2021/09/30 11:59:29;;;;;;;7.68;1.67;;;;;;;15.93;58.66;101723.25;5085470;28;20048;-63
2021/09/30 12:01:58;;;;;;;8.45;1.38;;;;;;;15.82;58.71;101723.94;5090968;28;20138;-65
2021/09/30 12:04:30;;;;;;;5.60;1.17;;;;;;;15.61;58.75;101728.75;5071797;28;20102;-62
2021/09/30 12:06:57;;;;;;;9.55;4.32;;;;;;;15.71;58.80;101729.06;5088054;28;20080;-63
2021/09/30 12:09:25;;;;;;;10.35;1.88;;;;;;;15.70;59.43;101733.50;5085155;28;20141;-63
2021/09/30 12:12:05;;;;;;;5.75;1.38;;;;;;;15.62;59.47;101721.63;5087457;28;20167;-64
2021/09/30 12:14:38;;;;;;;6.10;1.30;;;;;;;15.49;60.26;101726.00;5080540;28;20128;-64
2021/09/30 12:17:07;;;;;;;6.63;1.40;;;;;;;15.80;59.58;101717.84;5091502;28;20052;-65
2021/09/30 12:19:43;;;;;;;5.45;1.27;;;;;;;16.11;58.98;101726.53;5089757;28;20051;-63
2021/09/30 12:22:23;;;;;;;7.22;1.17;;;;;;;16.07;58.16;101725.84;5090441;28;20105;-63
2021/09/30 12:24:54;;;;;;;8.65;1.23;;;;;;;15.47;59.07;101723.44;5082934;28;20144;-63
2021/09/30 12:27:24;;;;;;;6.07;1.83;;;;;;;15.85;58.45;101725.53;5086357;28;20047;-64
2021/09/30 12:29:53;;;;;;;8.52;1.65;;;;;;;15.92;58.74;101717.06;5084216;28;20040;-63
2021/09/30 12:32:27;;;;;;;3.42;1.30;;;;;;;15.95;58.47;101719.56;5068390;28;20040;-65
2021/09/30 12:34:59;;;;;;;5.70;0.93;;;;;;;16.11;56.97;101729.19;5083812;28;20125;-64
2021/09/30 12:37:54;;;;;;;6.40;1.90;;;;;;;16.41;56.18;101723.69;5081594;28;20464;-64
2021/09/30 12:40:26;;;;;;;9.20;1.53;;;;;;;16.89;55.82;101724.03;5080266;28;20127;-64
2021/09/30 12:42:57;;;;;;;8.50;1.35;;;;;;;16.92;54.67;101722.00;5083970;28;20478;-65
2021/09/30 12:45:25;;;;;;;11.02;1.42;;;;;;;17.02;54.18;101724.03;5086798;28;20071;-66
2021/09/30 12:48:21;;;;;;;5.53;1.15;;;;;;;16.87;54.46;101709.97;5088041;28;20116;-64
2021/09/30 12:50:49;;;;;;;;;;;;;;;16.66;55.12;101714.91;5095043;28;20664;-65
2021/09/30 12:53:19;;;;;;;7.30;1.27;;;;;;;16.89;53.83;101708.94;5081332;28;20003;-63
2021/09/30 12:55:47;;;;;;;9.07;1.80;;;;;;;16.63;55.12;101710.66;5082363;28;20472;-66
2021/09/30 12:58:29;;;;;;;6.25;1.02;;;;;;;16.42;55.14;101702.31;5084074;28;20613;-66
2021/09/30 13:00:57;;;;;;;5.50;1.23;;;;;;;16.71;54.63;101703.03;5085070;28;20134;-63
2021/09/30 13:03:26;;;;;;;9.98;1.52;;;;;;;16.88;54.82;101701.03;5088024;28;20167;-66
2021/09/30 13:05:55;;;;;;;5.70;1.30;;;;;;;16.22;55.12;101696.63;5085495;28;20192;-65
2021/09/30 13:08:39;;;;;;;7.22;1.52;;;;;;;15.88;56.42;101699.63;5093048;28;20048;-64
2021/09/30 13:11:32;;;;;;;8.93;1.40;;;;;;;16.31;55.64;101703.97;5085047;28;20139;-65
2021/09/30 13:14:29;;;;;;;5.97;1.58;;;;;;;16.11;55.37;101698.16;5083780;28;20047;-65
2021/09/30 13:17:14;;;;;;;9.23;1.42;;;;;;;16.36;54.15;101701.88;5083447;28;20052;-64
2021/09/30 13:19:49;;;;;;;4.70;1.23;;;;;;;16.40;52.40;101698.06;5080845;28;20045;-64
2021/09/30 13:22:37;;;;;;;4.70;1.33;;;;;;;16.20;52.29;101702.84;5082300;28;20147;-65
2021/09/30 13:25:16;;;;;;;7.25;1.42;;;;;;;16.15;53.27;101696.16;5077982;28;20139;-65
2021/09/30 13:27:45;;;;;;;5.00;0.93;;;;;;;15.85;53.88;101696.31;5089350;28;20048;-64
2021/09/30 13:30:15;;;;;;;5.25;1.30;;;;;;;15.81;53.43;101698.34;5076087;28;20456;-65
2021/09/30 13:32:43;;;;;;;8.35;1.00;;;;;;;16.07;53.56;101688.66;5083401;28;20042;-65
2021/09/30 13:35:11;;;;;;;7.47;1.70;;;;;;;16.21;51.67;101698.44;5081433;28;20507;-65
2021/09/30 13:37:38;;;;;;;3.92;1.45;;;;;;;16.52;51.14;101697.22;5086364;28;21305;-65
2021/09/30 13:40:07;;;;;;;9.48;1.67;;;;;;;16.40;51.48;101695.41;5064845;28;20570;-64
2021/09/30 13:42:37;;;;;;;8.02;1.65;;;;;;;16.52;51.10;101689.25;5084670;28;20052;-65
2021/09/30 13:45:07;;;;;;;6.13;1.10;;;;;;;16.56;51.74;101693.41;5084783;28;20538;-65
2021/09/30 13:47:34;;;;;;;6.80;1.58;;;;;;;16.67;51.99;101693.56;5084574;28;20077;-65
2021/09/30 13:50:04;;;;;;;4.78;1.45;;;;;;;16.47;52.54;101696.69;5088888;28;20067;-65
2021/09/30 13:52:31;;;;;;;5.45;1.50;;;;;;;16.44;53.11;101697.75;5084724;28;20121;-65
2021/09/30 13:54:58;;;;;;;5.15;1.67;;;;;;;16.60;52.52;101700.22;5083588;28;20040;-65
2021/09/30 13:57:25;;;;;;;6.32;1.20;;;;;;;16.50;51.41;101693.81;5092980;28;20048;-64
2021/09/30 13:59:53;;;;;;;5.63;1.50;;;;;;;16.49;51.54;101686.81;5088167;28;20051;-65
2021/09/30 14:02:39;;;;;;;5.95;1.20;;;;;;;16.50;51.71;101685.84;5090249;28;20093;-65
2021/09/30 14:05:09;;;;;;;5.68;1.17;;;;;;;16.39;51.90;101683.91;5087030;28;20078;-64
2021/09/30 14:07:36;;;;;;;7.22;1.58;;;;;;;15.97;52.16;101682.25;5088586;28;20127;-65
2021/09/30 14:10:05;;;;;;;4.53;1.33;;;;;;;15.83;51.63;101677.00;5084482;28;20048;-63
2021/09/30 14:12:32;;;;;;;4.30;1.20;;;;;;;15.72;52.71;101687.47;5087522;28;20062;-69
2021/09/30 14:14:59;;;;;;;8.85;1.20;;;;;;;15.77;52.29;101685.34;5062622;28;20132;-67
2021/09/30 14:17:26;;;;;;;8.20;1.33;;;;;;;15.62;53.21;101677.34;5085051;28;20055;-65